カンザスシティ の空港の天気 - METARとTAF

カンザスシティ国際空港 ( KMCI / MCI ) - アメリカ ミズーリ州カンザスシティ
飛行場実況気象(Metar)
観測時間10/16 00:53 CDT (10/16 05:53 UTC)
風向・風速南南西 2m/s
視程10km以上
天気現象
なし
気温0℃
湿度88%
気圧1027.5hPa
METARKMCI 160553Z 21004KT 10SM CLR 00/M02 A3032 RMK AO2 SLP275 24/931000 T00001017 10044 20000 400831011 58006
過去の天気等 Google飛行場航空写真 Wunderground天気予報

過去48時間のMETAR

飛行場予報(TAF)
発表時間: 10/16 00:20 CDT (10/16 05:20 UTC)
予報対象時間: 16日1時 CDT ~ 17日1時 CDT
風向・風速不定 2m/s
視程10km以上
なし
16日10時 CDT から
風向・風速西南西 4m/s
視程10km以上
なし
KMCI 160520Z 1606/1706 VRB04KT P6SM SKC
FM161500 24008KT P6SM SKC